createdAt,value
2018-10-09T00:01:26.760Z,32.4
2018-10-09T00:11:27.478Z,34.2
2018-10-09T00:21:28.195Z,30.2
2018-10-09T00:31:32.630Z,29.3
2018-10-09T00:41:26.931Z,28.2
2018-10-09T00:51:27.371Z,28.4
2018-10-09T01:01:27.727Z,25.5
2018-10-09T01:11:26.493Z,29.3
2018-10-09T01:21:28.237Z,26.8
2018-10-09T01:31:27.917Z,28.3
2018-10-09T01:41:30.077Z,29.9
2018-10-09T01:51:26.902Z,33.1
2018-10-09T02:01:27.819Z,28.8
2018-10-09T02:11:38.378Z,30.4
2018-10-09T02:21:32.024Z,37.4
2018-10-09T02:31:26.876Z,41.0
2018-10-09T02:41:27.507Z,40.3
2018-10-09T02:51:28.899Z,43.0
2018-10-09T03:01:27.193Z,44.2
2018-10-09T03:11:27.034Z,41.1
2018-10-09T03:21:27.997Z,36.1
2018-10-09T03:31:27.356Z,37.2
2018-10-09T03:41:27.197Z,36.8
2018-10-09T03:51:29.059Z,34.2
2018-10-09T04:01:27.981Z,31.7
2018-10-09T04:11:28.239Z,40.8
2018-10-09T04:21:27.591Z,38.1
2018-10-09T04:31:28.129Z,38.7
2018-10-09T04:41:26.913Z,32.9
2018-10-09T04:51:26.883Z,31.9
2018-10-09T05:01:27.010Z,32.8
2018-10-09T05:11:25.804Z,29.5
2018-10-09T05:21:27.870Z,37.7
2018-10-09T05:31:26.769Z,36.5
2018-10-09T05:41:27.282Z,38.3
2018-10-09T05:51:27.442Z,37.7
2018-10-09T06:01:28.084Z,37.9
2018-10-09T06:11:28.568Z,39.5
2018-10-09T06:21:26.759Z,51.8
2018-10-09T06:31:26.587Z,38.0
2018-10-09T06:41:27.709Z,46.6
2018-10-09T06:51:26.790Z,39.1
2018-10-09T07:01:27.360Z,42.8
2018-10-09T07:11:27.653Z,41.1
2018-10-09T07:21:29.307Z,46.9
2018-10-09T07:31:27.323Z,42.9
2018-10-09T07:41:27.878Z,51.0
2018-10-09T07:51:26.836Z,47.1
2018-10-09T08:01:27.507Z,44.8
2018-10-09T08:11:27.814Z,42.4
2018-10-09T08:21:27.550Z,44.8
2018-10-09T08:31:26.419Z,48.3
2018-10-09T08:41:26.923Z,49.8
2018-10-09T08:51:26.899Z,42.8
2018-10-09T09:01:26.873Z,43.1
2018-10-09T09:11:27.107Z,43.8
2018-10-09T09:21:29.773Z,50.1
2018-10-09T09:31:26.773Z,38.1
2018-10-09T09:41:25.528Z,34.6
2018-10-09T09:51:28.182Z,37.7
2018-10-09T10:01:27.641Z,40.7
2018-10-09T10:11:27.735Z,33.6
2018-10-09T10:21:27.557Z,38.7
2018-10-09T10:31:27.885Z,37.8
2018-10-09T10:41:26.989Z,33.2
2018-10-09T10:51:26.178Z,29.7
2018-10-09T11:01:32.964Z,31.4
2018-10-09T11:11:31.736Z,33.4
2018-10-09T11:21:37.843Z,42.9
2018-10-09T11:31:26.081Z,36.6
2018-10-09T11:41:33.294Z,30.5
2018-10-09T11:51:26.176Z,33.0
2018-10-09T12:01:26.876Z,35.4
2018-10-09T12:11:25.731Z,31.7
2018-10-09T12:21:27.158Z,31.6
2018-10-09T12:31:27.743Z,32.5
2018-10-09T12:41:28.095Z,36.9
2018-10-09T12:51:27.263Z,43.4
2018-10-09T13:01:26.100Z,35.1
2018-10-09T13:11:28.001Z,36.0
2018-10-09T13:21:26.914Z,33.4
2018-10-09T13:31:27.898Z,28.8
2018-10-09T13:41:26.951Z,41.1
2018-10-09T13:51:25.803Z,36.2
2018-10-09T14:01:25.859Z,27.9
2018-10-09T14:11:27.641Z,27.4
2018-10-09T14:21:25.858Z,26.6
2018-10-09T14:31:27.520Z,30.8
2018-10-09T14:41:26.367Z,25.5
2018-10-09T14:51:25.709Z,26.2
2018-10-09T15:01:27.290Z,25.6
2018-10-09T15:11:26.359Z,22.6
2018-10-09T15:21:26.381Z,24.5
2018-10-09T15:31:29.027Z,29.7
2018-10-09T15:41:26.881Z,23.4
2018-10-09T15:51:26.065Z,23.0
2018-10-09T16:01:27.490Z,21.5
2018-10-09T16:11:28.469Z,20.0
2018-10-09T16:21:26.771Z,20.5
2018-10-09T16:31:26.911Z,20.1
2018-10-09T16:41:28.695Z,25.5
2018-10-09T16:51:26.840Z,24.9
2018-10-09T17:01:26.049Z,24.3
2018-10-09T17:11:26.905Z,37.9
2018-10-09T17:21:28.199Z,31.9
2018-10-09T17:31:26.933Z,35.6
2018-10-09T17:41:27.080Z,38.4
2018-10-09T17:51:27.931Z,44.2
2018-10-09T18:01:29.556Z,44.3
2018-10-09T18:11:27.376Z,48.3
2018-10-09T18:21:27.521Z,51.7
2018-10-09T18:31:27.449Z,57.2
2018-10-09T18:41:28.558Z,137.9
2018-10-09T18:51:28.539Z,62.7
2018-10-09T19:01:27.435Z,69.9
2018-10-09T19:11:27.279Z,78.4
2018-10-09T19:22:26.943Z,74.5
2018-10-09T19:31:27.948Z,92.7
2018-10-09T19:41:28.670Z,71.2
2018-10-09T19:51:28.361Z,66.1
2018-10-09T20:01:28.420Z,72.1
2018-10-09T20:11:28.471Z,75.1
2018-10-09T20:21:26.409Z,78.1
2018-10-09T20:31:27.367Z,80.5
2018-10-09T20:41:27.314Z,74.9
2018-10-09T20:51:27.622Z,74.0
2018-10-09T21:01:26.809Z,75.3
2018-10-09T21:11:27.735Z,70.3
2018-10-09T21:21:27.075Z,75.3
2018-10-09T21:31:27.855Z,69.5
2018-10-09T21:41:27.265Z,75.1
2018-10-09T21:51:27.991Z,70.2
2018-10-09T22:01:28.561Z,70.9
2018-10-09T22:11:27.814Z,64.1
2018-10-09T22:21:27.236Z,70.7
2018-10-09T22:31:28.136Z,74.7
2018-10-09T22:41:27.096Z,72.9
2018-10-09T22:51:27.294Z,72.1
2018-10-09T23:01:27.993Z,71.1
2018-10-09T23:11:26.795Z,79.5
2018-10-09T23:21:27.589Z,64.5
2018-10-09T23:31:28.530Z,66.9
2018-10-09T23:41:28.660Z,65.0
2018-10-09T23:51:26.661Z,63.0
